createdAt,value
2022-12-03T00:01:29.722Z,49.45
2022-12-03T00:04:33.208Z,42.03
2022-12-03T00:07:36.745Z,43.47
2022-12-03T00:10:40.259Z,42.45
2022-12-03T00:13:43.697Z,44.63
2022-12-03T00:16:47.594Z,46.65
2022-12-03T00:19:51.199Z,46.65
2022-12-03T00:22:54.558Z,40.67
2022-12-03T00:25:57.867Z,42.38
2022-12-03T00:29:01.257Z,41.23
2022-12-03T00:32:04.728Z,40.60
2022-12-03T00:35:08.424Z,43.40
2022-12-03T00:38:12.028Z,40.28
2022-12-03T00:41:15.438Z,40.15
2022-12-03T00:44:18.748Z,42.50
2022-12-03T00:47:22.086Z,40.10
2022-12-03T00:50:25.567Z,39.28
2022-12-03T00:53:29.176Z,35.42
2022-12-03T00:56:32.630Z,33.83
2022-12-03T00:59:36.044Z,33.57
2022-12-03T01:02:39.503Z,38.38
2022-12-03T01:05:42.958Z,37.85
2022-12-03T01:08:46.422Z,37.08
2022-12-03T01:11:49.757Z,37.10
2022-12-03T01:14:53.281Z,34.40
2022-12-03T01:17:57.835Z,35.45
2022-12-03T01:21:01.286Z,33.85
2022-12-03T01:24:05.172Z,36.25
2022-12-03T01:27:08.579Z,34.28
2022-12-03T01:30:13.031Z,33.30
2022-12-03T01:33:16.383Z,34.33
2022-12-03T01:36:19.908Z,36.58
2022-12-03T01:39:23.384Z,34.97
2022-12-03T01:42:36.571Z,34.63
2022-12-03T01:45:39.969Z,34.60
2022-12-03T01:48:43.824Z,33.58
2022-12-03T01:51:49.276Z,32.47
2022-12-03T01:54:56.008Z,33.30
2022-12-03T01:58:02.241Z,33.13
2022-12-03T02:01:13.106Z,34.13
2022-12-03T02:04:18.959Z,38.15
2022-12-03T02:07:29.014Z,34.17
2022-12-03T02:10:34.928Z,34.42
2022-12-03T02:13:38.554Z,35.45
2022-12-03T02:16:43.989Z,35.20
2022-12-03T02:19:48.169Z,33.13
2022-12-03T02:23:09.174Z,34.47
2022-12-03T02:26:12.654Z,33.28
2022-12-03T02:29:16.181Z,34.72
2022-12-03T02:32:23.550Z,36.43
2022-12-03T02:35:30.440Z,35.42
2022-12-03T02:38:35.853Z,67.43
2022-12-03T02:41:57.870Z,48.55
2022-12-03T02:45:07.833Z,42.95
2022-12-03T02:48:19.186Z,43.27
2022-12-03T02:51:23.056Z,49.75
2022-12-03T02:54:26.677Z,46.05
2022-12-03T02:57:30.135Z,48.35
2022-12-03T03:00:35.608Z,52.83
2022-12-03T03:03:39.983Z,51.60
2022-12-03T03:06:43.466Z,41.75
2022-12-03T03:09:47.111Z,42.10
2022-12-03T03:12:52.751Z,44.17
2022-12-03T03:15:57.467Z,44.53
2022-12-03T03:19:01.447Z,41.80
2022-12-03T03:22:04.946Z,34.17
2022-12-03T03:25:12.214Z,32.92
2022-12-03T03:28:16.615Z,33.67
2022-12-03T03:31:23.343Z,36.33
2022-12-03T03:34:27.645Z,39.20
2022-12-03T03:37:31.367Z,35.22
2022-12-03T03:40:35.005Z,38.42
2022-12-03T03:43:40.933Z,32.15
2022-12-03T03:46:44.531Z,35.28
2022-12-03T03:49:50.758Z,34.80
2022-12-03T03:52:55.122Z,34.15
2022-12-03T03:55:58.544Z,33.28
2022-12-03T03:59:03.250Z,31.02
2022-12-03T04:02:06.665Z,34.63
2022-12-03T04:05:18.023Z,29.87
2022-12-03T04:08:21.590Z,32.97
2022-12-03T04:11:43.873Z,30.13
2022-12-03T04:14:47.227Z,34.85
2022-12-03T04:18:10.799Z,30.98
2022-12-03T04:21:35.896Z,38.07
2022-12-03T04:24:39.266Z,30.80
2022-12-03T04:28:01.168Z,33.58
2022-12-03T04:31:23.232Z,35.00
2022-12-03T04:34:45.554Z,52.00
2022-12-03T04:37:48.964Z,38.73
2022-12-03T04:41:01.524Z,36.67
2022-12-03T04:44:23.606Z,36.58
2022-12-03T04:47:27.011Z,34.72
2022-12-03T04:50:30.509Z,38.55
2022-12-03T04:53:36.243Z,37.40
2022-12-03T04:56:39.874Z,37.05
2022-12-03T04:59:43.519Z,35.90
2022-12-03T05:02:47.006Z,31.02
2022-12-03T05:05:50.458Z,37.88
2022-12-03T05:08:53.912Z,34.70
2022-12-03T05:11:57.346Z,32.28
2022-12-03T05:15:00.728Z,33.83
2022-12-03T05:18:04.195Z,37.22
2022-12-03T05:21:07.666Z,39.17
2022-12-03T05:24:11.171Z,34.67
2022-12-03T05:27:17.586Z,35.45
2022-12-03T05:30:23.798Z,34.13
2022-12-03T05:33:45.377Z,36.03
2022-12-03T05:36:48.809Z,35.88
2022-12-03T05:39:52.437Z,87.00
2022-12-03T05:43:01.184Z,65.93
2022-12-03T05:46:04.648Z,48.03
2022-12-03T05:49:08.067Z,38.92
2022-12-03T05:52:11.449Z,37.92
2022-12-03T05:55:15.510Z,34.83
2022-12-03T05:58:18.846Z,35.13
2022-12-03T06:01:22.215Z,39.88
2022-12-03T06:04:25.642Z,38.63
2022-12-03T06:07:29.036Z,45.70
2022-12-03T06:10:32.644Z,57.20
2022-12-03T06:13:36.028Z,42.85
2022-12-03T06:16:39.433Z,39.83
2022-12-03T06:19:42.874Z,33.03
2022-12-03T06:22:48.344Z,49.63
2022-12-03T06:25:51.715Z,46.47
2022-12-03T06:28:55.323Z,39.60
2022-12-03T06:31:58.727Z,38.95
2022-12-03T06:35:02.224Z,58.03
2022-12-03T06:38:05.639Z,58.03
2022-12-03T06:41:09.058Z,54.63
2022-12-03T06:44:12.549Z,47.17
2022-12-03T06:47:15.955Z,42.55
2022-12-03T06:50:19.463Z,39.55
2022-12-03T06:53:22.859Z,43.15
2022-12-03T06:56:29.752Z,46.13
2022-12-03T06:59:38.931Z,40.97
2022-12-03T07:02:44.692Z,43.55
2022-12-03T07:05:50.068Z,83.50
2022-12-03T07:08:54.160Z,83.15
2022-12-03T07:11:57.571Z,73.30
2022-12-03T07:15:00.964Z,71.20
2022-12-03T07:18:05.931Z,84.07
2022-12-03T07:21:09.318Z,46.05
2022-12-03T07:24:12.736Z,43.95
2022-12-03T07:27:16.252Z,49.60
2022-12-03T07:30:19.920Z,46.42
2022-12-03T07:33:23.383Z,43.95
2022-12-03T07:36:26.762Z,47.75
2022-12-03T07:39:30.467Z,54.00
2022-12-03T07:42:33.834Z,56.93
2022-12-03T07:45:37.312Z,46.03
2022-12-03T07:48:40.776Z,45.88
2022-12-03T07:51:53.387Z,44.95
2022-12-03T07:54:56.892Z,50.30
2022-12-03T07:58:00.450Z,45.73
2022-12-03T08:01:03.929Z,43.47
2022-12-03T08:04:08.558Z,46.65
2022-12-03T08:07:13.718Z,49.42
2022-12-03T08:10:17.130Z,45.40
2022-12-03T08:13:20.780Z,40.90
2022-12-03T08:16:24.286Z,47.53
2022-12-03T08:19:27.936Z,45.95
2022-12-03T08:22:31.387Z,51.30
2022-12-03T08:25:34.776Z,43.50
2022-12-03T08:28:38.302Z,51.27
2022-12-03T08:31:42.362Z,46.65
2022-12-03T08:34:46.063Z,49.95
2022-12-03T08:38:10.129Z,49.80
2022-12-03T08:41:37.030Z,50.03
2022-12-03T08:44:41.261Z,49.43
2022-12-03T08:47:44.613Z,58.65
2022-12-03T08:50:48.377Z,53.20
2022-12-03T08:54:01.747Z,54.55
2022-12-03T08:57:28.283Z,55.65
2022-12-03T09:00:32.516Z,55.57
2022-12-03T09:03:36.571Z,56.33
2022-12-03T09:06:40.039Z,57.08
2022-12-03T09:09:43.585Z,63.30
2022-12-03T09:12:47.205Z,58.33
2022-12-03T09:15:50.605Z,58.07
2022-12-03T09:18:54.044Z,58.30
2022-12-03T09:21:57.932Z,59.50
2022-12-03T09:25:01.391Z,55.70
2022-12-03T09:28:05.102Z,56.35
2022-12-03T09:31:08.798Z,47.03
2022-12-03T09:34:12.361Z,52.13
2022-12-03T09:37:16.500Z,50.88
2022-12-03T09:40:20.540Z,54.20
2022-12-03T09:43:24.570Z,52.00
2022-12-03T09:46:35.361Z,53.33
2022-12-03T09:49:40.080Z,46.67
2022-12-03T09:52:45.235Z,48.97
2022-12-03T09:55:49.465Z,47.28
2022-12-03T09:58:52.942Z,47.40
2022-12-03T10:01:58.887Z,43.87
2022-12-03T10:05:02.494Z,46.80
2022-12-03T10:08:20.973Z,43.25
2022-12-03T10:11:26.478Z,45.45
2022-12-03T10:14:30.065Z,46.78
2022-12-03T10:17:33.693Z,41.40
2022-12-03T10:20:38.422Z,44.10
2022-12-03T10:23:41.996Z,43.28
2022-12-03T10:26:47.397Z,44.78
2022-12-03T10:29:59.279Z,43.08
2022-12-03T10:33:18.517Z,36.80
2022-12-03T10:36:25.016Z,42.27
2022-12-03T10:39:28.515Z,40.55
2022-12-03T10:42:34.956Z,43.65
2022-12-03T10:45:38.444Z,38.90
2022-12-03T10:48:41.973Z,40.13
2022-12-03T10:51:49.110Z,38.80
2022-12-03T10:54:52.679Z,39.13
2022-12-03T10:57:56.301Z,39.75
2022-12-03T11:01:01.686Z,47.38
2022-12-03T11:04:05.781Z,42.00
2022-12-03T11:07:22.392Z,43.67
2022-12-03T11:10:26.161Z,44.90
2022-12-03T11:13:33.690Z,42.53
2022-12-03T11:16:42.970Z,43.17
2022-12-03T11:19:48.569Z,42.53
2022-12-03T11:22:56.090Z,43.47
2022-12-03T11:25:59.510Z,45.92
2022-12-03T11:29:03.570Z,49.55
2022-12-03T11:32:07.896Z,45.05
2022-12-03T11:35:57.427Z,46.33
2022-12-03T11:39:00.905Z,47.83
2022-12-03T11:42:37.288Z,44.90
2022-12-03T11:45:40.782Z,47.60
2022-12-03T11:48:49.457Z,49.50
2022-12-03T11:51:53.531Z,44.47
2022-12-03T11:55:14.740Z,44.77
2022-12-03T11:58:28.042Z,44.85
2022-12-03T12:01:40.142Z,44.17
2022-12-03T12:04:46.707Z,51.25
2022-12-03T12:07:50.763Z,45.03
2022-12-03T12:10:54.254Z,45.87
2022-12-03T12:14:10.819Z,42.47
2022-12-03T12:17:34.036Z,48.05
2022-12-03T12:20:37.791Z,39.78
2022-12-03T12:23:41.215Z,38.83
2022-12-03T12:26:51.666Z,33.67
2022-12-03T12:29:57.999Z,37.65
2022-12-03T12:33:10.622Z,37.17
2022-12-03T12:36:14.037Z,36.45
2022-12-03T12:39:17.590Z,32.17
2022-12-03T12:42:32.944Z,44.23
2022-12-03T12:45:38.551Z,36.08
2022-12-03T12:48:42.078Z,35.08
2022-12-03T12:51:47.448Z,36.85
2022-12-03T12:54:50.885Z,39.00
2022-12-03T12:57:56.709Z,35.33
2022-12-03T13:01:05.316Z,34.10
2022-12-03T13:04:19.772Z,34.38
2022-12-03T13:07:23.394Z,34.30
2022-12-03T13:10:38.975Z,33.03
2022-12-03T13:13:44.433Z,32.83
2022-12-03T13:16:49.947Z,33.50
2022-12-03T13:20:03.692Z,36.72
2022-12-03T13:23:30.951Z,30.30
2022-12-03T13:26:39.936Z,29.23
2022-12-03T13:29:49.087Z,27.70
2022-12-03T13:32:52.667Z,29.80
2022-12-03T13:35:56.739Z,29.27
2022-12-03T13:39:00.272Z,30.65
2022-12-03T13:42:37.324Z,30.57
2022-12-03T13:45:45.141Z,35.83
2022-12-03T13:48:49.035Z,37.70
2022-12-03T13:51:52.594Z,37.78
2022-12-03T13:54:57.057Z,35.17
2022-12-03T13:58:00.515Z,32.33
2022-12-03T14:01:04.008Z,35.87
2022-12-03T14:04:07.479Z,41.25
2022-12-03T14:07:10.920Z,46.58
2022-12-03T14:10:14.523Z,53.25
2022-12-03T14:13:17.928Z,53.63
2022-12-03T14:16:21.347Z,48.87
2022-12-03T14:19:24.819Z,43.78
2022-12-03T14:22:28.840Z,43.63
2022-12-03T14:25:32.253Z,54.05
2022-12-03T14:28:35.608Z,61.90
2022-12-03T14:31:39.038Z,74.00
2022-12-03T14:34:42.453Z,67.60
2022-12-03T14:37:45.915Z,54.83
2022-12-03T14:40:49.437Z,46.00
2022-12-03T14:43:52.903Z,42.90
2022-12-03T14:46:57.484Z,43.97
2022-12-03T14:50:01.226Z,41.47
2022-12-03T14:53:04.654Z,38.17
2022-12-03T14:56:08.354Z,36.67
2022-12-03T14:59:11.932Z,66.87
2022-12-03T15:02:15.749Z,78.53
2022-12-03T15:05:24.925Z,70.85
2022-12-03T15:08:32.111Z,44.40
2022-12-03T15:11:35.899Z,49.88
2022-12-03T15:14:39.349Z,96.17
2022-12-03T15:17:45.798Z,83.67
2022-12-03T15:20:49.875Z,79.38
2022-12-03T15:23:53.315Z,105.72
2022-12-03T15:26:56.983Z,73.07
2022-12-03T15:30:00.491Z,67.90
2022-12-03T15:33:04.085Z,68.73
2022-12-03T15:36:07.920Z,75.13
2022-12-03T15:39:11.526Z,77.28
2022-12-03T15:42:14.935Z,85.90
2022-12-03T15:45:18.916Z,101.07
2022-12-03T15:48:22.510Z,111.18
2022-12-03T15:51:26.292Z,112.40
2022-12-03T15:54:29.787Z,127.30
2022-12-03T15:57:34.544Z,148.00
2022-12-03T16:00:38.042Z,118.17
2022-12-03T16:03:41.942Z,124.93
2022-12-03T16:06:45.320Z,126.72
2022-12-03T16:09:48.804Z,112.55
2022-12-03T16:12:52.152Z,113.30
2022-12-03T16:15:55.539Z,101.87
2022-12-03T16:18:59.239Z,123.60
2022-12-03T16:22:02.864Z,136.70
2022-12-03T16:25:07.303Z,108.15
2022-12-03T16:28:10.702Z,112.90
2022-12-03T16:31:14.186Z,134.13
2022-12-03T16:34:17.747Z,126.33
2022-12-03T16:37:21.408Z,109.57
2022-12-03T16:40:24.908Z,113.15
2022-12-03T16:43:28.546Z,142.95
2022-12-03T16:46:32.195Z,128.57
2022-12-03T16:49:35.934Z,145.95
2022-12-03T16:52:39.558Z,147.85
2022-12-03T16:55:44.257Z,138.30
2022-12-03T16:58:47.941Z,124.18
2022-12-03T17:01:52.110Z,122.70
2022-12-03T17:04:56.409Z,166.00
2022-12-03T17:08:00.132Z,123.85
2022-12-03T17:11:03.782Z,94.47
2022-12-03T17:14:07.445Z,114.72
2022-12-03T17:17:10.895Z,150.83
2022-12-03T17:20:14.880Z,185.37
2022-12-03T17:23:18.609Z,167.90
2022-12-03T17:26:22.046Z,134.05
2022-12-03T17:29:26.979Z,116.88
2022-12-03T17:32:30.458Z,121.80
2022-12-03T17:35:34.210Z,123.32
2022-12-03T17:38:39.413Z,140.98
2022-12-03T17:41:42.983Z,152.38
2022-12-03T17:44:46.496Z,149.90
2022-12-03T17:47:49.983Z,181.60
2022-12-03T17:50:55.389Z,175.93
2022-12-03T17:53:58.795Z,173.77
2022-12-03T17:57:02.410Z,179.98
2022-12-03T18:00:06.760Z,127.32
2022-12-03T18:03:15.394Z,104.73
2022-12-03T18:06:18.792Z,209.50
2022-12-03T18:09:22.576Z,181.45
2022-12-03T18:12:26.115Z,197.88
2022-12-03T18:15:30.211Z,266.02
2022-12-03T18:18:33.707Z,177.93
2022-12-03T18:21:37.128Z,114.15
2022-12-03T18:24:40.896Z,123.72
2022-12-03T18:27:45.603Z,137.73
2022-12-03T18:30:52.480Z,83.82
2022-12-03T18:33:56.413Z,120.30
2022-12-03T18:37:00.035Z,119.40
2022-12-03T18:40:12.670Z,85.40
2022-12-03T18:43:17.512Z,81.30
2022-12-03T18:49:45.849Z,124.90
2022-12-03T18:52:49.823Z,287.97
2022-12-03T18:55:53.876Z,142.05
2022-12-03T18:58:57.702Z,77.97
2022-12-03T19:02:01.576Z,84.93
2022-12-03T19:05:05.615Z,89.50
2022-12-03T19:08:14.826Z,90.20
2022-12-03T19:11:18.774Z,77.95
2022-12-03T19:14:22.403Z,89.00
2022-12-03T19:17:27.433Z,64.85
2022-12-03T19:20:31.178Z,66.23
2022-12-03T19:23:35.512Z,91.70
2022-12-03T19:26:39.020Z,128.52
2022-12-03T19:29:42.792Z,129.98
2022-12-03T19:32:46.319Z,92.53
2022-12-03T19:35:50.021Z,98.43
2022-12-03T19:38:57.313Z,98.25
2022-12-03T19:42:01.260Z,99.28
2022-12-03T19:45:05.243Z,83.63
2022-12-03T19:48:08.997Z,76.03
2022-12-03T19:51:33.624Z,134.17
2022-12-03T19:54:37.043Z,105.80
2022-12-03T19:57:40.615Z,78.63
2022-12-03T20:00:43.986Z,95.13
2022-12-03T20:03:50.537Z,100.53
2022-12-03T20:06:54.118Z,65.90
2022-12-03T20:09:57.806Z,64.82
2022-12-03T20:13:02.547Z,76.20
2022-12-03T20:16:07.025Z,65.85
2022-12-03T20:19:13.220Z,72.63
2022-12-03T20:22:16.939Z,188.63
2022-12-03T20:25:20.901Z,132.60
2022-12-03T20:28:24.613Z,63.00
2022-12-03T20:31:30.987Z,57.17
2022-12-03T20:34:36.072Z,62.85
2022-12-03T20:37:39.716Z,166.97
2022-12-03T20:40:43.536Z,106.85
2022-12-03T20:43:47.744Z,77.78
2022-12-03T20:46:51.247Z,60.28
2022-12-03T20:49:55.523Z,61.45
2022-12-03T20:53:23.274Z,62.50
2022-12-03T20:56:26.305Z,63.80
2022-12-03T20:59:29.994Z,58.20
2022-12-03T21:02:33.730Z,60.22
2022-12-03T21:05:37.430Z,66.07
2022-12-03T21:08:42.670Z,104.53
2022-12-03T21:11:46.783Z,71.93
2022-12-03T21:14:50.273Z,75.55
2022-12-03T21:17:53.958Z,89.03
2022-12-03T21:21:01.175Z,101.35
2022-12-03T21:24:04.830Z,82.80
2022-12-03T21:27:09.480Z,94.40
2022-12-03T21:30:13.173Z,105.82
2022-12-03T21:33:16.563Z,75.07
2022-12-03T21:36:20.298Z,58.45
2022-12-03T21:39:23.993Z,66.23
2022-12-03T21:42:35.734Z,52.53
2022-12-03T21:45:43.413Z,56.05
2022-12-03T21:48:48.626Z,59.10
2022-12-03T21:51:52.475Z,54.17
2022-12-03T21:54:56.124Z,53.97
2022-12-03T21:57:59.580Z,56.75
2022-12-03T22:01:15.319Z,60.60
2022-12-03T22:04:18.944Z,55.28
2022-12-03T22:07:22.307Z,90.30
2022-12-03T22:10:25.785Z,89.57
2022-12-03T22:13:29.353Z,60.72
2022-12-03T22:16:32.782Z,66.90
2022-12-03T22:19:36.260Z,60.15
2022-12-03T22:22:39.796Z,56.97
2022-12-03T22:25:43.132Z,144.63
2022-12-03T22:28:48.529Z,74.82
2022-12-03T22:31:51.904Z,57.50
2022-12-03T22:34:55.240Z,55.95
2022-12-03T22:37:58.668Z,50.92
2022-12-03T22:41:09.226Z,51.13
2022-12-03T22:44:12.776Z,71.55
2022-12-03T22:47:16.218Z,58.35
2022-12-03T22:50:19.706Z,48.28
2022-12-03T22:53:23.146Z,53.50
2022-12-03T22:56:28.121Z,49.10
2022-12-03T22:59:31.646Z,53.47
2022-12-03T23:02:35.225Z,54.60
2022-12-03T23:05:39.855Z,55.65
2022-12-03T23:08:43.392Z,54.88
2022-12-03T23:11:47.142Z,58.27
2022-12-03T23:14:54.362Z,51.92
2022-12-03T23:17:58.175Z,56.05
2022-12-03T23:21:01.804Z,51.03
2022-12-03T23:24:06.298Z,50.05
2022-12-03T23:27:09.695Z,51.07
2022-12-03T23:30:15.702Z,49.90
2022-12-03T23:33:19.118Z,56.10
2022-12-03T23:36:23.740Z,53.10
2022-12-03T23:39:27.129Z,42.10
2022-12-03T23:42:30.529Z,47.13
2022-12-03T23:45:34.655Z,54.90
2022-12-03T23:48:38.360Z,50.20
2022-12-03T23:51:42.023Z,43.20
2022-12-03T23:54:45.438Z,42.70
2022-12-03T23:57:48.879Z,44.67
